»·PEaware :: N558GC KONT-KDAL

N558GC :: KONT-KDAL

FLIGHT INFORMATION

Flight Status: Arrived
Operator: Privately registered:
United States
More flights under this callsign
Pilot: Drew L. (13237)
Aircraft: BOEING 757-200
(B752)
More flights by this aircraft type
Origin: KONT Ontario Intl
United States
Destination: KDAL Dallas Love
United States
More flights between these airports :: More routes between these airports
Route: +RAJEE3 AVRRY ABQ TXO TURKI JFRYE3
File this flight plan on PilotEdge
Remarks: RMK / SIMBRIEF
Altitude:
(Current/Filed)
37,000ft
Speed:
(Current/Filed)
457kts
Departed: 01-Jul-20 04:22 PM
Arrived: 01-Jul-20 06:55 PM
Distance/Time
Traveled:
1039nm/2:33
Distance/Time
To Go:
Arrived

Flight Plot

Page will automatically refresh every two minutes.

Flight plan parsing failed; only flown route is shown


Map Options




Map Legend


Flown Route
Filed Route
Departure Airport
Arrival Airport
Navaid (VOR, NDB)
Fix

Horizontal Profiles

Position Reports

Time Latitude Longitude Heading Altitude Ground
Speed
01-Jul-20 15:47 34.051418 -117.600874 237 915ft 0kts
01-Jul-20 15:48 34.051418 -117.600874 237 915ft 0kts
01-Jul-20 15:49 34.051418 -117.600874 237 915ft 0kts
01-Jul-20 15:50 34.051418 -117.600874 237 915ft 0kts
01-Jul-20 15:51 34.051418 -117.600874 237 915ft 0kts
01-Jul-20 15:52 34.051418 -117.600874 237 915ft 0kts
01-Jul-20 15:53 34.051418 -117.600874 237 915ft 0kts
01-Jul-20 15:54 34.051418 -117.600874 237 915ft 0kts
01-Jul-20 15:55 34.051418 -117.600874 237 915ft 0kts
01-Jul-20 15:56 34.051418 -117.600874 237 915ft 0kts
01-Jul-20 15:57 34.051418 -117.600874 237 915ft 0kts
01-Jul-20 15:58 34.051418 -117.600874 237 915ft 0kts
01-Jul-20 15:59 34.051418 -117.600874 237 915ft 0kts
01-Jul-20 16:00 34.051418 -117.600874 237 915ft 0kts
01-Jul-20 16:01 34.051418 -117.600874 237 915ft 0kts
01-Jul-20 16:02 34.051418 -117.600874 237 915ft 0kts
01-Jul-20 16:03 34.051418 -117.600874 237 915ft 0kts
01-Jul-20 16:04 34.051418 -117.600874 237 915ft 0kts
01-Jul-20 16:05 34.051418 -117.600874 237 915ft 0kts
01-Jul-20 16:06 34.051418 -117.600874 237 915ft 0kts
01-Jul-20 16:07 34.051418 -117.600874 237 915ft 0kts
01-Jul-20 16:08 34.051418 -117.600874 237 915ft 0kts
01-Jul-20 16:09 34.051418 -117.600874 237 915ft 0kts
01-Jul-20 16:10 34.051418 -117.600875 237 915ft 0kts
01-Jul-20 16:11 34.051418 -117.600875 237 915ft 0kts
01-Jul-20 16:12 34.051509 -117.601322 337 916ft 2kts
01-Jul-20 16:13 34.052138 -117.601449 0 917ft 0kts
01-Jul-20 16:14 34.052138 -117.601449 0 917ft 0kts
01-Jul-20 16:15 34.052138 -117.601449 0 917ft 0kts
01-Jul-20 16:16 34.052592 -117.601547 334 919ft 8kts
01-Jul-20 16:18 34.053856 -117.601014 89 922ft 17kts
01-Jul-20 16:19 34.053857 -117.594135 89 922ft 16kts
01-Jul-20 16:20 34.053850 -117.589585 89 922ft 15kts
01-Jul-20 16:21 34.054229 -117.582547 19 926ft 18kts
01-Jul-20 16:22 34.054964 -117.601188 269 929ft 162kts
01-Jul-20 16:23 34.027217 -117.644699 172 2895ft 245kts
01-Jul-20 16:24 33.971017 -117.590357 141 6221ft 272kts
01-Jul-20 16:25 33.910477 -117.532712 146 9630ft 286kts
01-Jul-20 16:26 33.837419 -117.470788 139 11722ft 350kts
01-Jul-20 16:27 33.807796 -117.367069 78 14754ft 372kts
01-Jul-20 16:28 33.830444 -117.242525 78 17742ft 390kts
01-Jul-20 16:29 33.851634 -117.111873 78 20428ft 408kts
01-Jul-20 16:30 33.873386 -116.975857 78 22914ft 422kts
01-Jul-20 16:31 33.895773 -116.834178 78 25119ft 437kts
01-Jul-20 16:32 33.918636 -116.688268 78 27026ft 452kts
01-Jul-20 16:33 33.942033 -116.537634 77 28788ft 465kts
01-Jul-20 16:33 33.961804 -116.408784 77 30158ft 474kts
01-Jul-20 16:34 33.985945 -116.251097 78 31593ft 484kts
01-Jul-20 16:36 34.014591 -116.062419 78 33156ft 494kts
01-Jul-20 16:36 34.034910 -115.927165 77 34556ft 491kts
01-Jul-20 16:37 34.058711 -115.766748 78 36043ft 485kts
01-Jul-20 16:39 34.086078 -115.581186 77 36919ft 468kts
01-Jul-20 16:39 34.105141 -115.450859 77 36931ft 475kts
01-Jul-20 16:40 34.127841 -115.294069 78 36861ft 475kts
01-Jul-20 16:41 34.150331 -115.137278 79 36802ft 479kts
01-Jul-20 16:42 34.173271 -114.976030 82 36803ft 494kts
01-Jul-20 16:43 34.196231 -114.812360 82 36798ft 493kts
01-Jul-20 16:44 34.218916 -114.648748 82 36791ft 493kts
01-Jul-20 16:45 34.241470 -114.485196 82 36792ft 493kts
01-Jul-20 16:46 34.263652 -114.324112 83 36786ft 493kts
01-Jul-20 16:47 34.285758 -114.160518 83 36786ft 493kts
01-Jul-20 16:48 34.307660 -113.996595 83 36788ft 493kts
01-Jul-20 16:49 34.329326 -113.832687 83 36789ft 493kts
01-Jul-20 16:50 34.350737 -113.668986 83 36791ft 493kts
01-Jul-20 16:51 34.371939 -113.505118 83 36793ft 493kts
01-Jul-20 16:52 34.392921 -113.341199 83 36999ft 493kts
01-Jul-20 16:53 34.413375 -113.179626 83 37107ft 493kts
01-Jul-20 16:54 34.433900 -113.015706 83 37109ft 493kts
01-Jul-20 16:55 34.454212 -112.851755 84 37110ft 491kts
01-Jul-20 16:56 34.474219 -112.688281 84 37111ft 491kts
01-Jul-20 16:57 34.494027 -112.524622 84 37113ft 491kts
01-Jul-20 16:58 34.513582 -112.361182 84 37114ft 491kts
01-Jul-20 16:59 34.532958 -112.197350 85 37108ft 491kts
01-Jul-20 17:00 34.552098 -112.033577 85 37108ft 491kts
01-Jul-20 17:01 34.571005 -111.869865 85 37104ft 491kts
01-Jul-20 17:02 34.589724 -111.705796 85 37103ft 491kts
01-Jul-20 17:03 34.608178 -111.542061 85 37109ft 491kts
01-Jul-20 17:04 34.626473 -111.377710 85 37129ft 491kts
01-Jul-20 17:05 34.644491 -111.213825 85 37117ft 490kts
01-Jul-20 17:06 34.662273 -111.049690 85 37102ft 491kts
01-Jul-20 17:07 34.679926 -110.884969 85 37086ft 491kts
01-Jul-20 17:08 34.697325 -110.720398 85 37086ft 491kts
01-Jul-20 17:09 34.714520 -110.555663 85 37101ft 491kts
01-Jul-20 17:10 34.731489 -110.390941 85 37160ft 492kts
01-Jul-20 17:11 34.748282 -110.225772 86 37159ft 491kts
01-Jul-20 17:12 34.764799 -110.061053 86 37165ft 491kts
01-Jul-20 17:13 34.781115 -109.896051 86 37166ft 491kts
01-Jul-20 17:14 34.797209 -109.730954 86 37130ft 491kts
01-Jul-20 17:15 34.813073 -109.565841 86 37115ft 491kts
01-Jul-20 17:16 34.828717 -109.400678 86 37116ft 491kts
01-Jul-20 17:17 34.844087 -109.235971 87 37110ft 491kts
01-Jul-20 17:18 34.859316 -109.070293 87 37112ft 493kts
01-Jul-20 17:19 34.874348 -108.904385 87 37121ft 494kts
01-Jul-20 17:20 34.889227 -108.737577 87 37176ft 494kts
01-Jul-20 17:21 34.903838 -108.571068 87 38001ft 495kts
01-Jul-20 17:22 34.918259 -108.404103 87 38781ft 495kts
01-Jul-20 17:23 34.932194 -108.240220 87 39405ft 494kts
01-Jul-20 17:24 34.946126 -108.073484 87 39842ft 495kts
01-Jul-20 17:25 34.959840 -107.906681 87 40249ft 494kts
01-Jul-20 17:26 34.973179 -107.741903 87 41152ft 479kts
01-Jul-20 17:27 34.986012 -107.580112 87 41172ft 481kts
01-Jul-20 17:28 34.998742 -107.417084 87 41158ft 484kts
01-Jul-20 17:29 35.011280 -107.253810 87 41121ft 483kts
01-Jul-20 17:30 35.023591 -107.090491 87 41121ft 483kts
01-Jul-20 17:31 35.035694 -106.926903 87 41122ft 484kts
01-Jul-20 17:32 35.035413 -106.763983 100 41123ft 478kts
01-Jul-20 17:33 35.017202 -106.603094 102 41104ft 478kts
01-Jul-20 17:34 34.997367 -106.442391 102 41099ft 479kts
01-Jul-20 17:35 34.977456 -106.282754 102 41092ft 479kts
01-Jul-20 17:36 34.957185 -106.122063 102 41093ft 480kts
01-Jul-20 17:37 34.936684 -105.961286 103 41124ft 480kts
01-Jul-20 17:38 34.915986 -105.800717 103 41169ft 481kts
01-Jul-20 17:39 34.894979 -105.639487 103 41171ft 482kts
01-Jul-20 17:40 34.873775 -105.478415 103 41116ft 482kts
01-Jul-20 17:41 34.852275 -105.316823 103 41026ft 482kts
01-Jul-20 17:42 34.830652 -105.155989 103 41030ft 482kts
01-Jul-20 17:43 34.808794 -104.995146 103 41030ft 481kts
01-Jul-20 17:44 34.786836 -104.835110 102 41029ft 478kts
01-Jul-20 17:45 34.763651 -104.676443 102 41030ft 479kts
01-Jul-20 17:46 34.741128 -104.516642 102 41033ft 479kts
01-Jul-20 17:47 34.718881 -104.359419 102 41033ft 479kts
01-Jul-20 17:48 34.696170 -104.200285 103 41027ft 478kts
01-Jul-20 17:49 34.673256 -104.041313 103 41013ft 478kts
01-Jul-20 17:50 34.650134 -103.882424 103 41001ft 478kts
01-Jul-20 17:51 34.626796 -103.723556 103 41010ft 478kts
01-Jul-20 17:52 34.603191 -103.564364 103 41022ft 479kts
01-Jul-20 17:53 34.579505 -103.406078 103 41032ft 478kts
01-Jul-20 17:54 34.555496 -103.247149 103 41025ft 478kts
01-Jul-20 17:55 34.531334 -103.088638 103 41027ft 480kts
01-Jul-20 17:56 34.506780 -102.928991 103 41032ft 483kts
01-Jul-20 17:57 34.485941 -102.767588 99 41030ft 485kts
01-Jul-20 17:58 34.469311 -102.605204 99 41015ft 486kts
01-Jul-20 17:59 34.452399 -102.443159 99 40994ft 485kts
01-Jul-20 18:00 34.435206 -102.280611 100 40989ft 484kts
01-Jul-20 18:01 34.417847 -102.118598 100 40982ft 485kts
01-Jul-20 18:02 34.400285 -101.956749 100 40964ft 485kts
01-Jul-20 18:03 34.382481 -101.794673 100 40964ft 485kts
01-Jul-20 18:04 34.364445 -101.632580 100 40968ft 485kts
01-Jul-20 18:05 34.346251 -101.470970 100 40968ft 485kts
01-Jul-20 18:06 34.327835 -101.309325 100 40957ft 484kts
01-Jul-20 18:07 34.309229 -101.148062 100 40961ft 485kts
01-Jul-20 18:08 34.290458 -100.987167 100 40955ft 485kts
01-Jul-20 18:09 34.271473 -100.826278 99 40903ft 480kts
01-Jul-20 18:10 34.252458 -100.666749 99 40890ft 480kts
01-Jul-20 18:11 34.233218 -100.507248 99 40895ft 480kts
01-Jul-20 18:12 34.213844 -100.348401 100 40892ft 479kts
01-Jul-20 18:13 34.190411 -100.189767 104 40888ft 479kts
01-Jul-20 18:14 34.162132 -100.032430 104 40888ft 479kts
01-Jul-20 18:16 34.133787 -99.875390 104 40888ft 479kts
01-Jul-20 18:17 34.105294 -99.718665 104 40882ft 478kts
01-Jul-20 18:18 34.076573 -99.561886 104 40863ft 478kts
01-Jul-20 18:19 34.047427 -99.404063 104 39287ft 491kts
01-Jul-20 18:20 34.015238 -99.244886 112 36320ft 490kts
01-Jul-20 18:21 33.968020 -99.092134 113 33645ft 482kts
01-Jul-20 18:22 33.920504 -98.940820 111 31042ft 490kts
01-Jul-20 18:23 33.876519 -98.801373 110 28998ft 452kts
01-Jul-20 18:24 33.832771 -98.663327 109 26667ft 435kts
01-Jul-20 18:25 33.790270 -98.529838 109 24651ft 419kts
01-Jul-20 18:26 33.749354 -98.401257 108 22784ft 408kts
01-Jul-20 18:27 33.712349 -98.285271 109 21070ft 391kts
01-Jul-20 18:28 33.673885 -98.165167 109 19316ft 378kts
01-Jul-20 18:29 33.636573 -98.049110 109 17626ft 366kts
01-Jul-20 18:29 33.606406 -97.955600 109 16271ft 357kts
01-Jul-20 18:31 33.565124 -97.828091 110 14427ft 346kts
01-Jul-20 18:32 33.530606 -97.721874 110 12881ft 338kts
01-Jul-20 18:32 33.502400 -97.635363 110 11617ft 331kts
01-Jul-20 18:34 33.463753 -97.517216 110 9944ft 320kts
01-Jul-20 18:34 33.448278 -97.431106 91 9854ft 323kts
01-Jul-20 18:35 33.444411 -97.330652 92 8617ft 279kts
01-Jul-20 18:37 33.440540 -97.229524 92 7205ft 245kts
01-Jul-20 18:37 33.437918 -97.161988 92 6209ft 243kts
01-Jul-20 18:38 33.434759 -97.082063 92 5943ft 240kts
01-Jul-20 18:39 33.431542 -97.001938 93 5943ft 240kts
01-Jul-20 18:40 33.425811 -96.922310 114 5947ft 240kts
01-Jul-20 18:41 33.393791 -96.851957 118 5937ft 240kts
01-Jul-20 18:42 33.336682 -96.825506 183 5797ft 247kts
01-Jul-20 18:43 33.269681 -96.834143 185 4788ft 239kts
01-Jul-20 18:44 33.204265 -96.843396 185 3782ft 234kts
01-Jul-20 18:45 33.140241 -96.852511 184 2919ft 226kts
01-Jul-20 18:46 33.078411 -96.862478 200 2927ft 210kts
01-Jul-20 18:47 33.039393 -96.910416 226 2580ft 200kts
01-Jul-20 18:48 32.996289 -96.947947 171 2243ft 207kts
01-Jul-20 18:49 32.947497 -96.935020 167 1888ft 141kts
01-Jul-20 18:50 32.912565 -96.924785 148 1890ft 128kts
01-Jul-20 18:51 32.889111 -96.893740 137 1254ft 123kts
01-Jul-20 18:52 32.870746 -96.872625 138 955ft 123kts
01-Jul-20 18:53 32.849532 -96.847839 136 491ft 47kts
01-Jul-20 18:54 32.849591 -96.846072 315 494ft 19kts
01-Jul-20 18:55 32.853237 -96.850309 315 487ft 17kts
01-Jul-20 18:56 32.856164 -96.852524 8 482ft 9kts
01-Jul-20 18:57 32.856424 -96.851849 151 481ft 5kts
01-Jul-20 18:58 32.855760 -96.851556 133 483ft 0kts
01-Jul-20 18:59 32.855760 -96.851556 133 483ft 0kts
01-Jul-20 19:00 32.855760 -96.851556 133 483ft 0kts
01-Jul-20 19:01 32.855760 -96.851556 133 483ft 0kts
01-Jul-20 19:02 32.855760 -96.851556 133 483ft 0kts
01-Jul-20 19:03 32.855760 -96.851556 133 483ft 0kts
01-Jul-20 19:04 32.855760 -96.851556 133 483ft 0kts
01-Jul-20 19:05 32.855760 -96.851556 133 483ft 0kts
01-Jul-20 19:06 32.855760 -96.851556 133 483ft 0kts
01-Jul-20 19:07 32.855760 -96.851556 133 483ft 0kts

Navigation Log

Ident Type
Flight plan parsing failed, navigation log unavailable